Погода Ремязинона 2 недели

Тверская область, Россия

22 мая-04 июня
  • 22мая
    Сегодня
    +6°
    +22°
    Ясно и безоблачно
    ВремяПогодаТемператураВлажностьДавлениеВетер, м/сВероятность осадков
    00:00Ясно и безоблачно+12°C51 %754 мм0.4 м/с2 %
    03:00Ясно и безоблачно+9°C63 %755 мм0.1 м/с2 %
    06:00Ясно и безоблачно+10°C64 %756 мм0.4 м/с2 %
    09:00Ясно и безоблачно+16°C46 %756 мм1.8 м/с2 %
    12:00Ясно и безоблачно+20°C34 %757 мм2.0 м/с2 %
    15:00Ясно и безоблачно+22°C33 %756 мм1.7 м/с2 %
    18:00Ясно и безоблачно+21°C37 %756 мм1.4 м/с2 %
    21:00Практически безоблачно+15°C47 %757 мм0.9 м/с2 %
  • 23мая
    Четверг
    +7°
    +21°
    Небольшая облачность
    ВремяПогодаТемператураВлажностьДавлениеВетер, м/сВероятность осадков
    00:00Ясно и безоблачно+10°C49 %758 мм0.9 м/с2 %
    03:00Ясно и безоблачно+7°C64 %759 мм1.1 м/с2 %
    06:00Ясно и безоблачно+9°C65 %760 мм0.3 м/с2 %
    09:00Ясно и безоблачно+16°C41 %761 мм1.4 м/с2 %
    12:00Ясно и безоблачно+19°C35 %761 мм1.7 м/с2 %
    15:00Небольшая облачность+21°C34 %761 мм1.1 м/с2 %
    18:00Ясно и безоблачно+20°C35 %760 мм0.7 м/с2 %
    21:00Ясно и безоблачно+14°C48 %761 мм0.3 м/с2 %
  • 24мая
    Пятница
    +8°
    +23°
    Практически безоблачно
    ВремяПогодаТемператураВлажностьДавлениеВетер, м/сВероятность осадков
    00:00Облачно с прояснениями+10°C61 %761 мм0.6 м/с2 %
    03:00Ясно и безоблачно+8°C74 %762 мм0.8 м/с2 %
    06:00Ясно и безоблачно+10°C71 %763 мм0.0 м/с2 %
    09:00Ясно и безоблачно+17°C45 %764 мм1.1 м/с2 %
    12:00Ясно и безоблачно+21°C37 %763 мм0.9 м/с2 %
    15:00Практически безоблачно+22°C36 %763 мм0.7 м/с2 %
    18:00Ясно и безоблачно+22°C38 %762 мм0.5 м/с2 %
    21:00Ясно и безоблачно+16°C58 %761 мм0.1 м/с2 %
  • 25мая
    Суббота
    +9°
    +25°
    Практически безоблачно
    ВремяПогодаТемператураВлажностьДавлениеВетер, м/сВероятность осадков
    00:00Ясно и безоблачно+12°C61 %761 мм0.6 м/с2 %
    03:00Ясно и безоблачно+9°C66 %762 мм1.0 м/с2 %
    06:00Ясно и безоблачно+11°C71 %761 мм0.4 м/с2 %
    09:00Ясно и безоблачно+17°C49 %761 мм1.9 м/с2 %
    12:00Ясно и безоблачно+22°C38 %760 мм2.1 м/с2 %
    15:00Практически безоблачно+24°C34 %759 мм2.2 м/с2 %
    18:00Ясно и безоблачно+24°C36 %757 мм1.4 м/с2 %
    21:00Ясно и безоблачно+18°C58 %756 мм0.4 м/с2 %
  • 26мая
    Воскресенье
    +8°
    +24°
    Небольшая облачность, ливень
    ВремяПогодаТемператураВлажностьДавлениеВетер, м/сВероятность осадков
    00:00Ясно и безоблачно+13°C70 %756 мм0.5 м/с2 %
    03:00Ясно и безоблачно+10°C75 %756 мм1.3 м/с3 %
    06:00Небольшая облачность+13°C72 %756 мм0.3 м/с5 %
    09:00Облачно с прояснениями+20°C57 %756 мм0.8 м/с8 %
    12:00Облачно с прояснениями+23°C59 %756 мм0.9 м/с38 %
    15:00Небольшая облачность, ливень+23°C72 %757 мм1.4 м/с58 %
    18:00Пасмурно, сплошная облачность+22°C47 %756 мм1.4 м/с48 %
    21:00Ясно и безоблачно+17°C48 %757 мм1.3 м/с20 %
Мы используем cookies
Соглашаюсь